»·PEaware :: SWA399 KSAN-KLAS

SWA399 :: KSAN-KLAS

FLIGHT INFORMATION

Flight Status: Arrived
Operator:
Southwest Airlines
More flights by this operator :: More flights under this callsign
Pilot: Mike C. (16705)
Aircraft: BOEING 757-300
(B753)
More flights by this aircraft type
Origin: KSAN San Diego Intl-Lindbergh
United States
Destination: KLAS McCarran Intl
United States
More flights between these airports :: More routes between these airports
Route: PADRZ2 CHKNN SEBBY YELAH MISEN KEPEC6
File this flight plan on PilotEdge
Remarks: RMK / SIMBRIEF
Altitude:
(Current/Filed)
34,000ft
Speed:
(Current/Filed)
450kts
Departed: 15-Sep-19 03:49 PM
Arrived: 15-Sep-19 04:49 PM
Distance/Time
Traveled:
225nm/1:00
Distance/Time
To Go:
Arrived

Flight Plot

Page will automatically refresh every two minutes.

Flight plan parsing failed; only flown route is shown


Map Options




Map Legend


Flown Route
Filed Route
Departure Airport
Arrival Airport
Navaid (VOR, NDB)
Fix

Horizontal Profiles

Position Reports

Time Latitude Longitude Heading Altitude Ground
Speed
15-Sep-19 15:11 32.732841 -117.197082 140 28ft 0kts
15-Sep-19 15:12 32.732841 -117.197082 140 28ft 0kts
15-Sep-19 15:13 32.732841 -117.197082 140 28ft 0kts
15-Sep-19 15:15 32.732841 -117.197082 140 28ft 0kts
15-Sep-19 15:23 32.733433 -117.196495 171 29ft 0kts
15-Sep-19 15:24 32.733433 -117.196495 171 29ft 0kts
15-Sep-19 15:25 32.733433 -117.196495 171 29ft 0kts
15-Sep-19 15:26 32.733433 -117.196495 171 29ft 0kts
15-Sep-19 15:27 32.733433 -117.196495 171 28ft 0kts
15-Sep-19 15:28 32.733433 -117.196495 171 28ft 0kts
15-Sep-19 15:29 32.733433 -117.196495 171 28ft 0kts
15-Sep-19 15:30 32.733433 -117.196495 171 28ft 0kts
15-Sep-19 15:31 32.733433 -117.196495 171 28ft 0kts
15-Sep-19 15:32 32.733433 -117.196495 171 28ft 0kts
15-Sep-19 15:33 32.733433 -117.196495 171 28ft 0kts
15-Sep-19 15:34 32.733433 -117.196495 171 28ft 0kts
15-Sep-19 15:35 32.733433 -117.196495 171 28ft 0kts
15-Sep-19 15:36 32.733495 -117.196506 171 28ft 2kts
15-Sep-19 15:37 32.733817 -117.196885 66 28ft 2kts
15-Sep-19 15:38 32.733633 -117.197072 18 28ft 0kts
15-Sep-19 15:39 32.733633 -117.197072 18 28ft 0kts
15-Sep-19 15:40 32.733870 -117.196963 28 28ft 3kts
15-Sep-19 15:41 32.733888 -117.195291 106 28ft 8kts
15-Sep-19 15:42 32.733127 -117.192117 103 28ft 11kts
15-Sep-19 15:43 32.732226 -117.188321 106 28ft 12kts
15-Sep-19 15:44 32.731177 -117.184314 107 28ft 13kts
15-Sep-19 15:45 32.730218 -117.180295 106 28ft 13kts
15-Sep-19 15:46 32.729491 -117.177087 89 28ft 6kts
15-Sep-19 15:47 32.730050 -117.175892 335 28ft 3kts
15-Sep-19 15:48 32.732315 -117.184572 284 28ft 92kts
15-Sep-19 15:49 32.746154 -117.228377 304 863ft 164kts
15-Sep-19 15:50 32.776208 -117.273121 305 1284ft 193kts
15-Sep-19 15:51 32.811932 -117.329537 298 2913ft 247kts
15-Sep-19 15:52 32.852173 -117.399242 305 5872ft 264kts
15-Sep-19 15:53 32.897417 -117.470102 305 8807ft 276kts
15-Sep-19 15:54 32.940185 -117.536766 305 10371ft 323kts
15-Sep-19 15:55 32.998018 -117.626930 305 12991ft 354kts
15-Sep-19 15:56 33.058857 -117.721770 308 15989ft 368kts
15-Sep-19 15:58 33.136676 -117.803636 318 18708ft 383kts
15-Sep-19 15:59 33.219341 -117.886792 319 21156ft 397kts
15-Sep-19 16:00 33.305845 -117.971177 318 23376ft 411kts
15-Sep-19 16:01 33.396265 -118.059609 314 25130ft 431kts
15-Sep-19 16:02 33.489059 -118.150723 313 27136ft 439kts
15-Sep-19 16:03 33.586011 -118.240655 324 28879ft 459kts
15-Sep-19 16:04 33.705631 -118.277158 357 30313ft 496kts
15-Sep-19 16:05 33.815037 -118.240624 27 31348ft 522kts
15-Sep-19 16:06 33.895343 -118.155771 54 32603ft 525kts
15-Sep-19 16:07 33.954071 -118.018140 61 33912ft 523kts
15-Sep-19 16:08 34.033962 -117.872583 55 33901ft 523kts
15-Sep-19 16:09 34.113694 -117.741329 49 33902ft 523kts
15-Sep-19 16:10 34.197598 -117.619283 50 33938ft 523kts
15-Sep-19 16:11 34.262599 -117.524020 50 33965ft 525kts
15-Sep-19 16:12 34.340720 -117.409150 50 33967ft 524kts
15-Sep-19 16:13 34.439240 -117.263742 51 33959ft 524kts
15-Sep-19 16:14 34.541069 -117.112821 51 33962ft 524kts
15-Sep-19 16:15 34.645673 -116.957114 51 33987ft 524kts
15-Sep-19 16:16 34.742680 -116.812097 50 33997ft 524kts
15-Sep-19 16:17 34.831605 -116.678641 50 33508ft 498kts
15-Sep-19 16:17 34.915996 -116.585125 36 31336ft 498kts
15-Sep-19 16:19 35.040962 -116.463613 37 28746ft 485kts
15-Sep-19 16:20 35.139335 -116.357334 45 26818ft 469kts
15-Sep-19 16:20 35.212298 -116.266198 46 25187ft 457kts
15-Sep-19 16:22 35.308019 -116.145904 46 24270ft 454kts
15-Sep-19 16:22 35.380679 -116.054298 46 23021ft 463kts
15-Sep-19 16:23 35.457554 -115.957104 46 20271ft 424kts
15-Sep-19 16:25 35.551576 -115.837849 46 16718ft 401kts
15-Sep-19 16:25 35.607867 -115.766270 47 14601ft 376kts
15-Sep-19 16:26 35.675408 -115.684531 32 13263ft 362kts
15-Sep-19 16:27 35.737659 -115.602859 53 13003ft 349kts
15-Sep-19 16:28 35.818042 -115.549551 10 13003ft 348kts
15-Sep-19 16:29 35.908092 -115.556139 348 13005ft 341kts
15-Sep-19 16:30 35.985652 -115.521357 50 12508ft 353kts
15-Sep-19 16:31 36.015691 -115.428814 74 11520ft 328kts
15-Sep-19 16:32 36.028068 -115.335379 100 10378ft 287kts
15-Sep-19 16:33 36.020348 -115.227208 100 9265ft 281kts
15-Sep-19 16:34 36.013550 -115.128153 100 8418ft 256kts
15-Sep-19 16:35 36.008015 -115.042339 98 8005ft 255kts
15-Sep-19 16:36 36.041831 -114.982863 32 7486ft 269kts
15-Sep-19 16:37 36.097625 -114.940117 32 6205ft 241kts
15-Sep-19 16:38 36.142785 -114.905267 32 5785ft 238kts
15-Sep-19 16:39 36.188162 -114.870662 25 5784ft 233kts
15-Sep-19 16:40 36.232163 -114.893177 305 5798ft 210kts
15-Sep-19 16:41 36.253048 -114.945992 247 5800ft 179kts
15-Sep-19 16:42 36.245120 -114.998901 259 5399ft 178kts
15-Sep-19 16:43 36.229488 -115.042608 214 5124ft 173kts
15-Sep-19 16:44 36.195800 -115.071997 213 4447ft 167kts
15-Sep-19 16:45 36.159626 -115.104331 215 3563ft 132kts
15-Sep-19 16:46 36.130026 -115.131372 219 2918ft 140kts
15-Sep-19 16:47 36.102398 -115.154723 204 2233ft 143kts
15-Sep-19 16:48 36.083900 -115.164867 180 2155ft 17kts
15-Sep-19 16:49 36.082322 -115.164531 146 2157ft 1kts
15-Sep-19 16:50 36.081854 -115.163916 127 2156ft 5kts
15-Sep-19 16:51 36.081595 -115.160544 89 2147ft 19kts
15-Sep-19 16:52 36.081448 -115.153703 99 2124ft 18kts
15-Sep-19 16:53 36.080632 -115.149069 149 2107ft 9kts
15-Sep-19 16:54 36.079583 -115.147781 60 2106ft 6kts
15-Sep-19 16:55 36.079893 -115.147178 56 2104ft 0kts
15-Sep-19 16:56 36.079893 -115.147178 56 2104ft 0kts

Navigation Log

Ident Type
Flight plan parsing failed, navigation log unavailable